Wounded Knee, South Dakota
Current Conditions -  °F | °C
As of 4:52 AM on Saturday 20 Dec 2014 (Local Time) from KIEN Reporting Station
Clear Clear  
Wind Chill: 12°   Ceiling: Unl
Heat Index: 21°   Visibility: 10mi
Dew Point: 15°   Wind: 7mph
Humidity: 78%   Direction: 270°W
Pressure: 29.92"   Gusts: NA
Location:  43.14°N, 102.37°W
Report Text: KIEN 201152Z AUTO 27006KT 10SM CLR M06/M09 A2992 RMK AO2 SLP167 T10611094 11056 21100 57006
Loading
Personal Weather Stations






























Interactive Weather Map New forecast layout! Learn more

10-Day Weather Forecast

Advertisements
Track Severe Weather on mobile